createdAt,value
2022-09-26T10:34:03.930Z,0.85
2022-09-26T10:36:43.934Z,0.90
2022-09-26T10:39:39.568Z,0.80
2022-09-26T10:42:21.635Z,0.80
2022-09-26T10:44:53.165Z,0.88
2022-09-26T10:47:27.942Z,0.90
2022-09-26T10:50:16.396Z,0.90
2022-09-26T10:53:10.054Z,1.55
2022-09-26T10:55:44.565Z,0.90
2022-09-26T10:58:19.544Z,0.80
2022-09-26T11:00:54.546Z,1.27
2022-09-26T11:03:35.857Z,0.90
2022-09-26T11:06:05.785Z,1.02
2022-09-26T11:08:38.147Z,1.10
2022-09-26T11:11:14.342Z,0.85
2022-09-26T11:14:05.463Z,1.08
2022-09-26T11:16:54.315Z,1.00
2022-09-26T11:19:30.363Z,1.80
2022-09-26T11:24:39.255Z,1.10
2022-09-26T11:27:30.229Z,0.90
2022-09-26T13:04:05.832Z,1.25
2022-09-26T13:07:17.921Z,1.00
2022-09-26T13:09:47.916Z,1.30
2022-09-26T13:12:41.387Z,1.10
2022-09-26T13:15:24.636Z,0.90
2022-09-26T13:17:59.826Z,0.85
2022-09-26T13:20:46.310Z,1.50
2022-09-26T13:25:52.367Z,0.90
2022-09-26T13:28:27.653Z,0.80
2022-09-26T13:31:08.862Z,0.95
2022-09-26T13:33:42.150Z,0.65
2022-09-26T13:36:12.908Z,0.80
2022-09-26T13:38:43.094Z,0.70
2022-09-26T13:41:31.383Z,1.35
2022-09-26T13:44:04.986Z,1.00
2022-09-26T13:46:36.043Z,1.33
2022-09-26T13:49:06.984Z,1.30
2022-09-26T13:51:48.586Z,1.25
2022-09-26T13:54:20.636Z,1.83
2022-09-26T13:56:51.768Z,1.65
2022-09-26T13:59:22.668Z,1.90
2022-09-26T14:02:11.965Z,1.80
2022-09-26T16:28:03.278Z,1.52
2022-09-26T16:30:33.481Z,1.88
2022-09-26T16:33:07.485Z,1.60
2022-09-26T16:35:38.753Z,2.13
2022-09-26T16:38:29.740Z,1.70
2022-09-26T16:41:10.658Z,1.90
2022-09-26T16:43:42.056Z,1.80
2022-09-26T16:46:20.670Z,1.98
2022-09-26T16:48:54.635Z,2.30
2022-09-26T16:51:36.361Z,2.20
2022-09-26T16:54:14.543Z,2.35
2022-09-26T16:56:46.140Z,2.15
2022-09-26T16:59:21.442Z,2.13
2022-09-26T17:01:58.467Z,1.98
2022-09-26T17:04:32.868Z,1.85
2022-09-26T17:07:09.703Z,1.80
2022-09-26T17:09:43.845Z,2.30
2022-09-26T17:12:22.203Z,2.15
2022-09-26T17:14:59.296Z,1.90
2022-09-26T17:17:30.852Z,1.80
2022-09-26T17:20:02.509Z,2.20
2022-09-26T17:22:32.819Z,1.98
2022-09-26T17:25:03.868Z,2.00
2022-09-26T22:06:43.518Z,1.55
2022-09-26T22:09:18.063Z,1.60
2022-09-26T22:11:49.410Z,1.40
2022-09-26T22:14:19.724Z,1.48
2022-09-26T22:16:49.751Z,1.15
2022-09-26T22:19:19.917Z,1.45
2022-09-26T22:21:49.934Z,1.60
2022-09-26T22:24:19.879Z,1.50
2022-09-26T22:26:49.812Z,1.52
2022-09-26T22:29:19.777Z,1.13
2022-09-26T22:31:49.638Z,1.65
2022-09-26T22:34:19.582Z,1.92
2022-09-26T22:36:49.444Z,2.10
2022-09-26T22:39:19.942Z,1.85
2022-09-26T22:41:50.142Z,1.48
2022-09-26T22:44:20.326Z,1.52
2022-09-26T22:46:50.394Z,1.60
2022-09-26T22:49:20.565Z,1.60
2022-09-26T22:51:50.567Z,1.40
2022-09-26T22:54:21.148Z,1.38
2022-09-26T22:56:51.048Z,1.30
2022-09-26T22:59:21.076Z,1.33
2022-09-26T23:01:53.316Z,1.50
2022-09-26T23:04:23.244Z,1.20
